sensor_id;sensor_type;location;lat;lon;timestamp;temperature;humidity
28863;DHT22;15994;51.796;13.006;2023-02-15T00:01:38;0.40;99.90
28863;DHT22;15994;51.796;13.006;2023-02-15T00:04:06;0.40;99.90
28863;DHT22;15994;51.796;13.006;2023-02-15T00:06:33;0.40;99.90
28863;DHT22;15994;51.796;13.006;2023-02-15T00:08:59;0.30;99.90
28863;DHT22;15994;51.796;13.006;2023-02-15T00:11:26;0.30;99.90
28863;DHT22;15994;51.796;13.006;2023-02-15T00:14:20;0.30;99.90
28863;DHT22;15994;51.796;13.006;2023-02-15T00:16:48;0.30;99.90
28863;DHT22;15994;51.796;13.006;2023-02-15T00:19:17;0.30;99.90
28863;DHT22;15994;51.796;13.006;2023-02-15T00:21:45;0.30;99.90
28863;DHT22;15994;51.796;13.006;2023-02-15T00:24:13;0.40;99.90
28863;DHT22;15994;51.796;13.006;2023-02-15T00:26:41;0.40;99.90
28863;DHT22;15994;51.796;13.006;2023-02-15T00:29:09;0.40;99.90
28863;DHT22;15994;51.796;13.006;2023-02-15T00:31:36;0.40;99.90
28863;DHT22;15994;51.796;13.006;2023-02-15T00:34:04;0.30;99.90
28863;DHT22;15994;51.796;13.006;2023-02-15T00:36:32;0.20;99.90
28863;DHT22;15994;51.796;13.006;2023-02-15T00:38:58;0.20;99.90
28863;DHT22;15994;51.796;13.006;2023-02-15T00:41:25;0.20;99.90
28863;DHT22;15994;51.796;13.006;2023-02-15T00:43:52;0.30;99.90
28863;DHT22;15994;51.796;13.006;2023-02-15T00:46:18;0.20;99.90
28863;DHT22;15994;51.796;13.006;2023-02-15T00:48:45;0.20;99.90
28863;DHT22;15994;51.796;13.006;2023-02-15T00:51:11;0.20;99.90
28863;DHT22;15994;51.796;13.006;2023-02-15T00:53:38;0.20;99.90
28863;DHT22;15994;51.796;13.006;2023-02-15T00:56:04;0.20;99.90
28863;DHT22;15994;51.796;13.006;2023-02-15T00:58:31;0.20;99.90
28863;DHT22;15994;51.796;13.006;2023-02-15T01:01:07;0.10;99.90
28863;DHT22;15994;51.796;13.006;2023-02-15T01:03:34;0.10;99.90
28863;DHT22;15994;51.796;13.006;2023-02-15T01:06:01;0.10;99.90
28863;DHT22;15994;51.796;13.006;2023-02-15T01:08:28;0.10;99.90
28863;DHT22;15994;51.796;13.006;2023-02-15T01:10:56;0.10;99.90
28863;DHT22;15994;51.796;13.006;2023-02-15T01:13:22;0.00;99.90
28863;DHT22;15994;51.796;13.006;2023-02-15T01:15:53;-0.10;99.90
28863;DHT22;15994;51.796;13.006;2023-02-15T01:18:21;-0.10;99.90
28863;DHT22;15994;51.796;13.006;2023-02-15T01:20:48;-0.10;99.90
28863;DHT22;15994;51.796;13.006;2023-02-15T01:23:15;-0.10;99.90
28863;DHT22;15994;51.796;13.006;2023-02-15T01:25:41;-0.10;99.90
28863;DHT22;15994;51.796;13.006;2023-02-15T01:28:08;-0.10;99.90
28863;DHT22;15994;51.796;13.006;2023-02-15T01:30:35;-0.10;99.90
28863;DHT22;15994;51.796;13.006;2023-02-15T01:33:01;-0.10;99.90
28863;DHT22;15994;51.796;13.006;2023-02-15T01:35:28;-0.10;99.90
28863;DHT22;15994;51.796;13.006;2023-02-15T01:37:55;-0.20;99.90
28863;DHT22;15994;51.796;13.006;2023-02-15T01:40:23;-0.20;99.90
28863;DHT22;15994;51.796;13.006;2023-02-15T01:42:54;-0.20;99.90
28863;DHT22;15994;51.796;13.006;2023-02-15T01:45:30;-0.30;99.90
28863;DHT22;15994;51.796;13.006;2023-02-15T01:50:41;-0.30;99.90
28863;DHT22;15994;51.796;13.006;2023-02-15T01:55:47;-0.40;99.90
28863;DHT22;15994;51.796;13.006;2023-02-15T01:58:16;-0.40;99.90
28863;DHT22;15994;51.796;13.006;2023-02-15T02:00:43;-0.50;99.90
28863;DHT22;15994;51.796;13.006;2023-02-15T02:03:10;-0.50;99.90
28863;DHT22;15994;51.796;13.006;2023-02-15T02:05:39;-0.50;99.90
28863;DHT22;15994;51.796;13.006;2023-02-15T02:08:06;-0.40;99.90
28863;DHT22;15994;51.796;13.006;2023-02-15T02:10:35;-0.40;99.90
28863;DHT22;15994;51.796;13.006;2023-02-15T02:13:04;-0.50;99.90
28863;DHT22;15994;51.796;13.006;2023-02-15T02:16:08;-0.50;99.90
28863;DHT22;15994;51.796;13.006;2023-02-15T02:18:53;-0.40;99.90
28863;DHT22;15994;51.796;13.006;2023-02-15T02:24:36;-0.50;99.90
28863;DHT22;15994;51.796;13.006;2023-02-15T02:27:30;-0.60;99.90
28863;DHT22;15994;51.796;13.006;2023-02-15T02:38:23;-0.80;99.90
28863;DHT22;15994;51.796;13.006;2023-02-15T02:49:39;-0.70;99.90
28863;DHT22;15994;51.796;13.006;2023-02-15T02:52:40;-0.70;99.90
28863;DHT22;15994;51.796;13.006;2023-02-15T02:55:25;-0.70;99.90
28863;DHT22;15994;51.796;13.006;2023-02-15T03:00:40;-0.80;99.90
28863;DHT22;15994;51.796;13.006;2023-02-15T03:03:12;-0.90;99.90
28863;DHT22;15994;51.796;13.006;2023-02-15T03:05:44;-0.90;99.90
28863;DHT22;15994;51.796;13.006;2023-02-15T03:08:14;-0.90;99.90
28863;DHT22;15994;51.796;13.006;2023-02-15T03:10:47;-0.90;99.90
28863;DHT22;15994;51.796;13.006;2023-02-15T03:13:14;-0.80;99.90
28863;DHT22;15994;51.796;13.006;2023-02-15T03:15:41;-0.90;99.90
28863;DHT22;15994;51.796;13.006;2023-02-15T03:18:50;-0.80;99.90
28863;DHT22;15994;51.796;13.006;2023-02-15T03:21:27;-0.80;99.90
28863;DHT22;15994;51.796;13.006;2023-02-15T03:24:10;-0.80;99.90
28863;DHT22;15994;51.796;13.006;2023-02-15T03:26:40;-0.80;99.90
28863;DHT22;15994;51.796;13.006;2023-02-15T03:29:08;-0.80;99.90
28863;DHT22;15994;51.796;13.006;2023-02-15T03:31:40;-0.90;99.90
28863;DHT22;15994;51.796;13.006;2023-02-15T03:34:11;-0.90;99.90
28863;DHT22;15994;51.796;13.006;2023-02-15T03:40:17;-0.90;99.90
28863;DHT22;15994;51.796;13.006;2023-02-15T03:43:21;-0.90;99.90
28863;DHT22;15994;51.796;13.006;2023-02-15T03:45:52;-1.00;99.90
28863;DHT22;15994;51.796;13.006;2023-02-15T03:48:26;-0.90;99.90
28863;DHT22;15994;51.796;13.006;2023-02-15T03:51:00;-1.00;99.90
28863;DHT22;15994;51.796;13.006;2023-02-15T03:53:46;-1.00;99.90
28863;DHT22;15994;51.796;13.006;2023-02-15T03:56:14;-1.10;99.90
28863;DHT22;15994;51.796;13.006;2023-02-15T03:58:41;-1.10;99.90
28863;DHT22;15994;51.796;13.006;2023-02-15T04:01:40;-1.10;99.90
28863;DHT22;15994;51.796;13.006;2023-02-15T04:04:37;-1.10;99.90
28863;DHT22;15994;51.796;13.006;2023-02-15T04:07:06;-1.10;99.90
28863;DHT22;15994;51.796;13.006;2023-02-15T04:09:33;-1.20;99.90
28863;DHT22;15994;51.796;13.006;2023-02-15T04:12:17;-1.20;99.90
28863;DHT22;15994;51.796;13.006;2023-02-15T04:14:44;-1.20;99.90
28863;DHT22;15994;51.796;13.006;2023-02-15T04:17:28;-1.20;99.90
28863;DHT22;15994;51.796;13.006;2023-02-15T04:19:54;-1.30;99.90
28863;DHT22;15994;51.796;13.006;2023-02-15T04:22:38;-1.30;99.90
28863;DHT22;15994;51.796;13.006;2023-02-15T04:25:22;-1.40;99.90
28863;DHT22;15994;51.796;13.006;2023-02-15T04:27:51;-1.40;99.90
28863;DHT22;15994;51.796;13.006;2023-02-15T04:30:21;-1.30;99.90
28863;DHT22;15994;51.796;13.006;2023-02-15T04:32:48;-1.40;99.90
28863;DHT22;15994;51.796;13.006;2023-02-15T04:35:15;-1.40;99.90
28863;DHT22;15994;51.796;13.006;2023-02-15T04:37:42;-1.40;99.90
28863;DHT22;15994;51.796;13.006;2023-02-15T04:40:11;-1.40;99.90
28863;DHT22;15994;51.796;13.006;2023-02-15T04:42:38;-1.30;99.90
28863;DHT22;15994;51.796;13.006;2023-02-15T04:45:05;-1.40;99.90
28863;DHT22;15994;51.796;13.006;2023-02-15T04:47:32;-1.40;99.90
28863;DHT22;15994;51.796;13.006;2023-02-15T04:49:58;-1.40;99.90
28863;DHT22;15994;51.796;13.006;2023-02-15T04:52:25;-1.40;99.90
28863;DHT22;15994;51.796;13.006;2023-02-15T04:54:51;-1.40;99.90
28863;DHT22;15994;51.796;13.006;2023-02-15T04:57:18;-1.40;99.90
28863;DHT22;15994;51.796;13.006;2023-02-15T04:59:44;-1.30;99.90
28863;DHT22;15994;51.796;13.006;2023-02-15T05:02:11;-1.40;99.90
28863;DHT22;15994;51.796;13.006;2023-02-15T05:04:37;-1.40;99.90
28863;DHT22;15994;51.796;13.006;2023-02-15T05:07:04;-1.40;99.90
28863;DHT22;15994;51.796;13.006;2023-02-15T05:09:30;-1.40;99.90
28863;DHT22;15994;51.796;13.006;2023-02-15T05:11:57;-1.40;99.90
28863;DHT22;15994;51.796;13.006;2023-02-15T05:14:23;-1.40;99.90
28863;DHT22;15994;51.796;13.006;2023-02-15T05:16:50;-1.50;99.90
28863;DHT22;15994;51.796;13.006;2023-02-15T05:19:16;-1.60;99.90
28863;DHT22;15994;51.796;13.006;2023-02-15T05:21:43;-1.70;99.90
28863;DHT22;15994;51.796;13.006;2023-02-15T05:24:09;-1.70;99.90
28863;DHT22;15994;51.796;13.006;2023-02-15T05:26:50;-1.80;99.90
28863;DHT22;15994;51.796;13.006;2023-02-15T05:29:34;-1.90;99.90
28863;DHT22;15994;51.796;13.006;2023-02-15T05:32:00;-1.90;99.90
28863;DHT22;15994;51.796;13.006;2023-02-15T05:34:29;-1.80;99.90
28863;DHT22;15994;51.796;13.006;2023-02-15T05:36:59;-1.80;99.90
28863;DHT22;15994;51.796;13.006;2023-02-15T05:39:25;-1.80;99.90
28863;DHT22;15994;51.796;13.006;2023-02-15T05:41:52;-1.70;99.90
28863;DHT22;15994;51.796;13.006;2023-02-15T05:44:18;-1.60;99.90
28863;DHT22;15994;51.796;13.006;2023-02-15T05:46:45;-1.60;99.90
28863;DHT22;15994;51.796;13.006;2023-02-15T05:49:11;-1.60;99.90
28863;DHT22;15994;51.796;13.006;2023-02-15T05:51:38;-1.60;99.90
28863;DHT22;15994;51.796;13.006;2023-02-15T05:54:04;-1.60;99.90
28863;DHT22;15994;51.796;13.006;2023-02-15T05:56:31;-1.60;99.90
28863;DHT22;15994;51.796;13.006;2023-02-15T05:58:57;-1.60;99.90
28863;DHT22;15994;51.796;13.006;2023-02-15T06:01:24;-1.60;99.90
28863;DHT22;15994;51.796;13.006;2023-02-15T06:03:50;-1.60;99.90
28863;DHT22;15994;51.796;13.006;2023-02-15T06:06:17;-1.50;99.90
28863;DHT22;15994;51.796;13.006;2023-02-15T06:08:44;-1.60;99.90
28863;DHT22;15994;51.796;13.006;2023-02-15T06:11:10;-1.60;99.90
28863;DHT22;15994;51.796;13.006;2023-02-15T06:13:37;-1.60;99.90
28863;DHT22;15994;51.796;13.006;2023-02-15T06:16:03;-1.60;99.90
28863;DHT22;15994;51.796;13.006;2023-02-15T06:18:30;-1.70;99.90
28863;DHT22;15994;51.796;13.006;2023-02-15T06:20:56;-1.70;99.90
28863;DHT22;15994;51.796;13.006;2023-02-15T06:23:23;-1.70;99.90
28863;DHT22;15994;51.796;13.006;2023-02-15T06:25:50;-1.60;99.90
28863;DHT22;15994;51.796;13.006;2023-02-15T06:28:16;-1.60;99.90
28863;DHT22;15994;51.796;13.006;2023-02-15T06:30:43;-1.70;99.90
28863;DHT22;15994;51.796;13.006;2023-02-15T06:33:09;-1.60;99.90
28863;DHT22;15994;51.796;13.006;2023-02-15T06:35:36;-1.70;99.90
28863;DHT22;15994;51.796;13.006;2023-02-15T06:38:02;-1.60;99.90
28863;DHT22;15994;51.796;13.006;2023-02-15T06:40:28;-1.60;99.90
28863;DHT22;15994;51.796;13.006;2023-02-15T06:42:55;-1.50;99.90
28863;DHT22;15994;51.796;13.006;2023-02-15T06:45:22;-1.50;99.90
28863;DHT22;15994;51.796;13.006;2023-02-15T06:47:48;-1.50;99.90
28863;DHT22;15994;51.796;13.006;2023-02-15T06:50:15;-1.50;99.90
28863;DHT22;15994;51.796;13.006;2023-02-15T06:52:41;-1.40;99.90
28863;DHT22;15994;51.796;13.006;2023-02-15T06:55:08;-1.30;99.90
28863;DHT22;15994;51.796;13.006;2023-02-15T06:57:34;-1.30;99.90
28863;DHT22;15994;51.796;13.006;2023-02-15T07:00:01;-1.20;99.90
28863;DHT22;15994;51.796;13.006;2023-02-15T07:02:30;-1.20;99.90
28863;DHT22;15994;51.796;13.006;2023-02-15T07:04:57;-1.10;99.90
28863;DHT22;15994;51.796;13.006;2023-02-15T07:07:23;-1.10;99.90
28863;DHT22;15994;51.796;13.006;2023-02-15T07:09:50;-1.00;99.90
28863;DHT22;15994;51.796;13.006;2023-02-15T07:12:16;-1.00;99.90
28863;DHT22;15994;51.796;13.006;2023-02-15T07:15:00;-1.00;99.90
28863;DHT22;15994;51.796;13.006;2023-02-15T07:17:26;-0.90;99.90
28863;DHT22;15994;51.796;13.006;2023-02-15T07:19:55;-0.90;99.90
28863;DHT22;15994;51.796;13.006;2023-02-15T07:22:21;-0.80;99.90
28863;DHT22;15994;51.796;13.006;2023-02-15T07:24:48;-0.80;99.90
28863;DHT22;15994;51.796;13.006;2023-02-15T07:27:15;-0.70;99.90
28863;DHT22;15994;51.796;13.006;2023-02-15T07:29:41;-0.70;99.90
28863;DHT22;15994;51.796;13.006;2023-02-15T07:32:08;-0.60;99.90
28863;DHT22;15994;51.796;13.006;2023-02-15T07:34:34;-0.50;99.90
28863;DHT22;15994;51.796;13.006;2023-02-15T07:37:01;-0.50;99.90
28863;DHT22;15994;51.796;13.006;2023-02-15T07:39:27;-0.50;99.90
28863;DHT22;15994;51.796;13.006;2023-02-15T07:41:54;-0.40;99.90
28863;DHT22;15994;51.796;13.006;2023-02-15T07:44:20;-0.30;99.90
28863;DHT22;15994;51.796;13.006;2023-02-15T07:46:47;-0.30;99.90
28863;DHT22;15994;51.796;13.006;2023-02-15T07:49:14;-0.20;99.90
28863;DHT22;15994;51.796;13.006;2023-02-15T07:51:40;-0.20;99.90
28863;DHT22;15994;51.796;13.006;2023-02-15T07:54:07;0.00;99.90
28863;DHT22;15994;51.796;13.006;2023-02-15T07:56:36;0.00;99.90
28863;DHT22;15994;51.796;13.006;2023-02-15T07:59:02;0.10;99.90
28863;DHT22;15994;51.796;13.006;2023-02-15T08:01:34;0.20;99.90
28863;DHT22;15994;51.796;13.006;2023-02-15T08:04:03;0.30;99.90
28863;DHT22;15994;51.796;13.006;2023-02-15T08:06:32;0.40;99.90
28863;DHT22;15994;51.796;13.006;2023-02-15T08:08:59;0.40;99.90
28863;DHT22;15994;51.796;13.006;2023-02-15T08:11:30;0.50;99.90
28863;DHT22;15994;51.796;13.006;2023-02-15T08:14:08;0.60;99.90
28863;DHT22;15994;51.796;13.006;2023-02-15T08:19:12;0.80;99.90
28863;DHT22;15994;51.796;13.006;2023-02-15T08:21:41;0.90;99.90
28863;DHT22;15994;51.796;13.006;2023-02-15T08:24:09;1.00;99.90
28863;DHT22;15994;51.796;13.006;2023-02-15T08:26:37;1.10;99.90
28863;DHT22;15994;51.796;13.006;2023-02-15T08:29:05;1.20;99.90
28863;DHT22;15994;51.796;13.006;2023-02-15T08:31:33;1.20;99.90
28863;DHT22;15994;51.796;13.006;2023-02-15T08:34:00;1.40;99.90
28863;DHT22;15994;51.796;13.006;2023-02-15T08:36:29;1.50;99.90
28863;DHT22;15994;51.796;13.006;2023-02-15T08:39:01;1.60;99.90
28863;DHT22;15994;51.796;13.006;2023-02-15T08:41:30;1.60;99.90
28863;DHT22;15994;51.796;13.006;2023-02-15T08:43:59;1.80;99.90
28863;DHT22;15994;51.796;13.006;2023-02-15T08:46:29;1.90;99.90
28863;DHT22;15994;51.796;13.006;2023-02-15T08:48:55;2.00;99.90
28863;DHT22;15994;51.796;13.006;2023-02-15T08:51:25;2.10;99.90
28863;DHT22;15994;51.796;13.006;2023-02-15T08:53:53;2.20;99.90
28863;DHT22;15994;51.796;13.006;2023-02-15T08:56:23;2.30;99.90
28863;DHT22;15994;51.796;13.006;2023-02-15T08:58:50;2.50;99.90
28863;DHT22;15994;51.796;13.006;2023-02-15T09:01:22;2.50;99.90
28863;DHT22;15994;51.796;13.006;2023-02-15T09:03:51;2.60;99.90
28863;DHT22;15994;51.796;13.006;2023-02-15T09:06:19;2.70;99.90
28863;DHT22;15994;51.796;13.006;2023-02-15T09:08:46;2.80;99.90
28863;DHT22;15994;51.796;13.006;2023-02-15T09:11:15;2.90;99.90
28863;DHT22;15994;51.796;13.006;2023-02-15T09:13:48;3.10;99.90
28863;DHT22;15994;51.796;13.006;2023-02-15T09:16:15;3.10;99.90
28863;DHT22;15994;51.796;13.006;2023-02-15T09:18:43;3.20;99.90
28863;DHT22;15994;51.796;13.006;2023-02-15T09:21:12;3.30;99.90
28863;DHT22;15994;51.796;13.006;2023-02-15T09:23:43;3.40;99.90
28863;DHT22;15994;51.796;13.006;2023-02-15T09:26:13;3.60;99.90
28863;DHT22;15994;51.796;13.006;2023-02-15T09:28:40;3.60;99.90
28863;DHT22;15994;51.796;13.006;2023-02-15T09:31:12;3.70;99.90
28863;DHT22;15994;51.796;13.006;2023-02-15T09:33:40;3.70;99.90
28863;DHT22;15994;51.796;13.006;2023-02-15T09:36:21;3.70;99.90
28863;DHT22;15994;51.796;13.006;2023-02-15T09:38:54;3.90;99.90
28863;DHT22;15994;51.796;13.006;2023-02-15T09:44:51;4.10;99.90
28863;DHT22;15994;51.796;13.006;2023-02-15T09:50:45;4.20;99.90
28863;DHT22;15994;51.796;13.006;2023-02-15T09:53:33;4.30;99.90
28863;DHT22;15994;51.796;13.006;2023-02-15T09:56:19;4.40;99.90
28863;DHT22;15994;51.796;13.006;2023-02-15T10:01:54;4.50;99.90
28863;DHT22;15994;51.796;13.006;2023-02-15T10:04:32;4.60;99.90
28863;DHT22;15994;51.796;13.006;2023-02-15T10:10:36;4.70;99.90
28863;DHT22;15994;51.796;13.006;2023-02-15T10:13:31;4.80;99.90
28863;DHT22;15994;51.796;13.006;2023-02-15T10:18:59;4.90;99.90
28863;DHT22;15994;51.796;13.006;2023-02-15T10:21:51;5.10;99.90
28863;DHT22;15994;51.796;13.006;2023-02-15T10:26:49;5.30;99.90
28863;DHT22;15994;51.796;13.006;2023-02-15T10:29:37;5.40;99.90
28863;DHT22;15994;51.796;13.006;2023-02-15T10:32:24;5.50;99.90
28863;DHT22;15994;51.796;13.006;2023-02-15T10:34:59;5.50;99.90
28863;DHT22;15994;51.796;13.006;2023-02-15T10:40:25;5.60;99.90
28863;DHT22;15994;51.796;13.006;2023-02-15T10:43:20;5.70;99.90
28863;DHT22;15994;51.796;13.006;2023-02-15T10:49:03;5.80;99.90
28863;DHT22;15994;51.796;13.006;2023-02-15T11:02:49;6.20;99.90
28863;DHT22;15994;51.796;13.006;2023-02-15T11:05:52;6.30;99.90
28863;DHT22;15994;51.796;13.006;2023-02-15T11:08:21;6.40;99.90
28863;DHT22;15994;51.796;13.006;2023-02-15T11:10:52;6.40;99.90
28863;DHT22;15994;51.796;13.006;2023-02-15T11:13:23;6.60;99.90
28863;DHT22;15994;51.796;13.006;2023-02-15T11:16:02;6.70;99.90
28863;DHT22;15994;51.796;13.006;2023-02-15T11:23:41;6.90;99.90
28863;DHT22;15994;51.796;13.006;2023-02-15T11:26:32;7.00;99.90
28863;DHT22;15994;51.796;13.006;2023-02-15T11:29:01;7.10;99.90
28863;DHT22;15994;51.796;13.006;2023-02-15T11:31:54;7.10;99.90
28863;DHT22;15994;51.796;13.006;2023-02-15T11:34:34;7.20;99.90
28863;DHT22;15994;51.796;13.006;2023-02-15T11:37:08;7.20;99.90
28863;DHT22;15994;51.796;13.006;2023-02-15T11:39:36;7.30;99.90
28863;DHT22;15994;51.796;13.006;2023-02-15T11:42:12;7.40;99.90
28863;DHT22;15994;51.796;13.006;2023-02-15T11:47:26;7.50;99.90
28863;DHT22;15994;51.796;13.006;2023-02-15T11:49:53;7.60;99.90
28863;DHT22;15994;51.796;13.006;2023-02-15T11:52:20;7.50;99.90
28863;DHT22;15994;51.796;13.006;2023-02-15T11:54:49;7.70;99.90
28863;DHT22;15994;51.796;13.006;2023-02-15T11:57:40;7.80;99.90
28863;DHT22;15994;51.796;13.006;2023-02-15T12:00:20;7.80;99.90
28863;DHT22;15994;51.796;13.006;2023-02-15T12:02:52;7.90;99.90
28863;DHT22;15994;51.796;13.006;2023-02-15T12:05:23;7.90;99.90
28863;DHT22;15994;51.796;13.006;2023-02-15T12:07:57;8.00;99.90
28863;DHT22;15994;51.796;13.006;2023-02-15T12:10:40;8.10;99.90
28863;DHT22;15994;51.796;13.006;2023-02-15T12:13:14;8.20;99.90
28863;DHT22;15994;51.796;13.006;2023-02-15T12:15:45;8.30;99.90
28863;DHT22;15994;51.796;13.006;2023-02-15T12:18:34;8.30;99.90
28863;DHT22;15994;51.796;13.006;2023-02-15T12:23:48;8.30;99.90
28863;DHT22;15994;51.796;13.006;2023-02-15T12:26:33;8.50;99.90
28863;DHT22;15994;51.796;13.006;2023-02-15T12:29:06;8.50;99.90
28863;DHT22;15994;51.796;13.006;2023-02-15T12:31:39;8.50;99.90
28863;DHT22;15994;51.796;13.006;2023-02-15T12:34:23;8.60;99.90
28863;DHT22;15994;51.796;13.006;2023-02-15T12:36:56;8.70;99.90
28863;DHT22;15994;51.796;13.006;2023-02-15T12:39:28;8.80;99.90
28863;DHT22;15994;51.796;13.006;2023-02-15T12:44:33;8.80;99.90
28863;DHT22;15994;51.796;13.006;2023-02-15T12:47:05;8.90;99.90
28863;DHT22;15994;51.796;13.006;2023-02-15T12:49:33;9.00;99.90
28863;DHT22;15994;51.796;13.006;2023-02-15T12:52:03;9.10;99.90
28863;DHT22;15994;51.796;13.006;2023-02-15T12:54:39;9.10;99.90
28863;DHT22;15994;51.796;13.006;2023-02-15T12:57:28;9.10;99.90
28863;DHT22;15994;51.796;13.006;2023-02-15T13:00:01;9.00;99.90
28863;DHT22;15994;51.796;13.006;2023-02-15T13:02:44;9.10;99.90
28863;DHT22;15994;51.796;13.006;2023-02-15T13:05:27;9.10;99.90
28863;DHT22;15994;51.796;13.006;2023-02-15T13:07:57;9.20;99.90
28863;DHT22;15994;51.796;13.006;2023-02-15T13:10:31;9.30;99.90
28863;DHT22;15994;51.796;13.006;2023-02-15T13:12:59;9.20;99.90
28863;DHT22;15994;51.796;13.006;2023-02-15T13:15:35;9.30;99.90
28863;DHT22;15994;51.796;13.006;2023-02-15T13:18:04;9.30;99.90
28863;DHT22;15994;51.796;13.006;2023-02-15T13:20:32;9.40;99.90
28863;DHT22;15994;51.796;13.006;2023-02-15T13:23:09;9.40;99.90
28863;DHT22;15994;51.796;13.006;2023-02-15T13:25:46;9.50;99.90
28863;DHT22;15994;51.796;13.006;2023-02-15T13:28:16;9.40;99.90
28863;DHT22;15994;51.796;13.006;2023-02-15T13:30:46;9.30;99.90
28863;DHT22;15994;51.796;13.006;2023-02-15T13:33:24;9.40;99.90
28863;DHT22;15994;51.796;13.006;2023-02-15T13:38:52;9.60;99.90
28863;DHT22;15994;51.796;13.006;2023-02-15T13:41:46;9.70;99.90
28863;DHT22;15994;51.796;13.006;2023-02-15T13:44:38;9.70;99.90
28863;DHT22;15994;51.796;13.006;2023-02-15T13:55:40;9.70;99.90
28863;DHT22;15994;51.796;13.006;2023-02-15T14:01:28;9.80;99.90
28863;DHT22;15994;51.796;13.006;2023-02-15T14:04:13;9.80;99.90
28863;DHT22;15994;51.796;13.006;2023-02-15T14:06:53;9.80;99.90
28863;DHT22;15994;51.796;13.006;2023-02-15T14:15:22;9.90;99.90
28863;DHT22;15994;51.796;13.006;2023-02-15T14:24:01;9.90;99.90
28863;DHT22;15994;51.796;13.006;2023-02-15T14:32:21;10.10;99.90
28863;DHT22;15994;51.796;13.006;2023-02-15T14:34:54;10.10;99.90
28863;DHT22;15994;51.796;13.006;2023-02-15T14:37:46;10.10;99.90
28863;DHT22;15994;51.796;13.006;2023-02-15T14:40:37;10.10;99.90
28863;DHT22;15994;51.796;13.006;2023-02-15T14:43:48;10.00;99.90
28863;DHT22;15994;51.796;13.006;2023-02-15T14:46:25;10.10;99.90
28863;DHT22;15994;51.796;13.006;2023-02-15T14:48:57;10.20;99.90
28863;DHT22;15994;51.796;13.006;2023-02-15T14:54:08;10.10;99.90
28863;DHT22;15994;51.796;13.006;2023-02-15T14:56:35;10.10;99.90
28863;DHT22;15994;51.796;13.006;2023-02-15T14:59:18;10.00;99.90
28863;DHT22;15994;51.796;13.006;2023-02-15T15:02:19;9.90;99.90
28863;DHT22;15994;51.796;13.006;2023-02-15T15:05:13;9.80;99.90
28863;DHT22;15994;51.796;13.006;2023-02-15T15:07:46;9.80;99.90
28863;DHT22;15994;51.796;13.006;2023-02-15T15:12:52;9.80;99.90
28863;DHT22;15994;51.796;13.006;2023-02-15T15:18:02;9.70;99.90
28863;DHT22;15994;51.796;13.006;2023-02-15T15:31:18;9.50;99.90
28863;DHT22;15994;51.796;13.006;2023-02-15T15:42:42;9.40;99.90
28863;DHT22;15994;51.796;13.006;2023-02-15T15:51:19;9.10;99.90
28863;DHT22;15994;51.796;13.006;2023-02-15T15:53:49;9.00;99.90
28863;DHT22;15994;51.796;13.006;2023-02-15T15:56:31;8.90;99.90
28863;DHT22;15994;51.796;13.006;2023-02-15T15:59:02;8.80;99.90
28863;DHT22;15994;51.796;13.006;2023-02-15T16:01:41;8.80;99.90
28863;DHT22;15994;51.796;13.006;2023-02-15T16:04:14;8.70;99.90
28863;DHT22;15994;51.796;13.006;2023-02-15T16:06:48;8.60;99.90
28863;DHT22;15994;51.796;13.006;2023-02-15T16:09:18;8.50;99.90
28863;DHT22;15994;51.796;13.006;2023-02-15T16:11:47;8.50;99.90
28863;DHT22;15994;51.796;13.006;2023-02-15T16:14:25;8.30;99.90
28863;DHT22;15994;51.796;13.006;2023-02-15T16:16:55;8.30;99.90
28863;DHT22;15994;51.796;13.006;2023-02-15T16:19:26;8.20;99.90
28863;DHT22;15994;51.796;13.006;2023-02-15T16:21:54;8.00;99.90
28863;DHT22;15994;51.796;13.006;2023-02-15T16:27:07;7.90;99.90
28863;DHT22;15994;51.796;13.006;2023-02-15T16:29:36;7.70;99.90
28863;DHT22;15994;51.796;13.006;2023-02-15T16:32:17;7.70;99.90
28863;DHT22;15994;51.796;13.006;2023-02-15T16:34:58;7.60;99.90
28863;DHT22;15994;51.796;13.006;2023-02-15T16:37:32;7.50;99.90
28863;DHT22;15994;51.796;13.006;2023-02-15T16:39:59;7.40;99.90
28863;DHT22;15994;51.796;13.006;2023-02-15T16:42:26;7.40;99.90
28863;DHT22;15994;51.796;13.006;2023-02-15T16:45:08;7.30;99.90
28863;DHT22;15994;51.796;13.006;2023-02-15T16:47:42;7.30;99.90
28863;DHT22;15994;51.796;13.006;2023-02-15T16:50:32;7.20;99.90
28863;DHT22;15994;51.796;13.006;2023-02-15T16:53:00;7.20;99.90
28863;DHT22;15994;51.796;13.006;2023-02-15T16:55:40;7.20;99.90
28863;DHT22;15994;51.796;13.006;2023-02-15T16:58:13;7.10;99.90
28863;DHT22;15994;51.796;13.006;2023-02-15T17:00:41;7.10;99.90
28863;DHT22;15994;51.796;13.006;2023-02-15T17:05:43;6.90;99.90
28863;DHT22;15994;51.796;13.006;2023-02-15T17:13:26;6.70;99.90
28863;DHT22;15994;51.796;13.006;2023-02-15T17:18:27;6.60;99.90
28863;DHT22;15994;51.796;13.006;2023-02-15T17:20:59;6.50;99.90
28863;DHT22;15994;51.796;13.006;2023-02-15T17:23:36;6.50;99.90
28863;DHT22;15994;51.796;13.006;2023-02-15T17:26:12;6.40;99.90
28863;DHT22;15994;51.796;13.006;2023-02-15T17:29:11;6.30;99.90
28863;DHT22;15994;51.796;13.006;2023-02-15T17:31:32;6.20;99.90
28863;DHT22;15994;51.796;13.006;2023-02-15T17:34:00;6.10;99.90
28863;DHT22;15994;51.796;13.006;2023-02-15T17:36:29;6.10;99.90
28863;DHT22;15994;51.796;13.006;2023-02-15T17:39:06;5.90;99.90
28863;DHT22;15994;51.796;13.006;2023-02-15T17:41:35;5.90;99.90
28863;DHT22;15994;51.796;13.006;2023-02-15T17:44:03;5.80;99.90
28863;DHT22;15994;51.796;13.006;2023-02-15T17:46:34;5.80;99.90
28863;DHT22;15994;51.796;13.006;2023-02-15T17:49:02;5.70;99.90
28863;DHT22;15994;51.796;13.006;2023-02-15T17:51:30;5.80;99.90
28863;DHT22;15994;51.796;13.006;2023-02-15T17:53:57;5.70;99.90
28863;DHT22;15994;51.796;13.006;2023-02-15T17:56:49;5.70;99.90
28863;DHT22;15994;51.796;13.006;2023-02-15T17:59:16;5.70;99.90
28863;DHT22;15994;51.796;13.006;2023-02-15T18:01:47;5.70;99.90
28863;DHT22;15994;51.796;13.006;2023-02-15T18:04:33;5.60;99.90
28863;DHT22;15994;51.796;13.006;2023-02-15T18:07:19;5.60;99.90
28863;DHT22;15994;51.796;13.006;2023-02-15T18:10:12;5.60;99.90
28863;DHT22;15994;51.796;13.006;2023-02-15T18:12:57;5.50;99.90
28863;DHT22;15994;51.796;13.006;2023-02-15T18:15:23;5.40;99.90
28863;DHT22;15994;51.796;13.006;2023-02-15T18:17:50;5.40;99.90
28863;DHT22;15994;51.796;13.006;2023-02-15T18:20:18;5.10;99.90
28863;DHT22;15994;51.796;13.006;2023-02-15T18:22:45;4.80;99.90
28863;DHT22;15994;51.796;13.006;2023-02-15T18:25:17;4.90;99.90
28863;DHT22;15994;51.796;13.006;2023-02-15T18:27:44;4.90;99.90
28863;DHT22;15994;51.796;13.006;2023-02-15T18:30:15;4.60;99.90
28863;DHT22;15994;51.796;13.006;2023-02-15T18:32:42;4.60;99.90
28863;DHT22;15994;51.796;13.006;2023-02-15T18:35:18;4.40;99.90
28863;DHT22;15994;51.796;13.006;2023-02-15T18:37:45;4.40;99.90
28863;DHT22;15994;51.796;13.006;2023-02-15T18:40:17;4.40;99.90